sensor_id;sensor_type;location;lat;lon;timestamp;P1;durP1;ratioP1;P2;durP2;ratioP2
43552;SDS011;29153;42.696;23.218;2022-09-01T00:02:15;17.12;;;10.03;;
43552;SDS011;29153;42.696;23.218;2022-09-01T00:04:43;17.52;;;10.23;;
43552;SDS011;29153;42.696;23.218;2022-09-01T00:07:12;16.93;;;10.08;;
43552;SDS011;29153;42.696;23.218;2022-09-01T00:09:40;16.62;;;10.58;;
43552;SDS011;29153;42.696;23.218;2022-09-01T00:12:08;18.75;;;11.25;;
43552;SDS011;29153;42.696;23.218;2022-09-01T00:14:37;16.77;;;10.48;;
43552;SDS011;29153;42.696;23.218;2022-09-01T00:17:07;17.00;;;11.00;;
43552;SDS011;29153;42.696;23.218;2022-09-01T00:19:36;18.92;;;11.28;;
43552;SDS011;29153;42.696;23.218;2022-09-01T00:22:05;18.55;;;11.05;;
43552;SDS011;29153;42.696;23.218;2022-09-01T00:24:34;19.12;;;10.53;;
43552;SDS011;29153;42.696;23.218;2022-09-01T00:27:02;17.40;;;11.00;;
43552;SDS011;29153;42.696;23.218;2022-09-01T00:29:30;17.77;;;11.63;;
43552;SDS011;29153;42.696;23.218;2022-09-01T00:31:57;20.57;;;10.08;;
43552;SDS011;29153;42.696;23.218;2022-09-01T00:34:25;17.65;;;10.38;;
43552;SDS011;29153;42.696;23.218;2022-09-01T00:36:53;16.05;;;10.30;;
43552;SDS011;29153;42.696;23.218;2022-09-01T00:39:20;20.10;;;9.90;;
43552;SDS011;29153;42.696;23.218;2022-09-01T00:41:48;17.65;;;11.45;;
43552;SDS011;29153;42.696;23.218;2022-09-01T00:44:17;16.35;;;11.20;;
43552;SDS011;29153;42.696;23.218;2022-09-01T00:46:50;19.10;;;11.38;;
43552;SDS011;29153;42.696;23.218;2022-09-01T00:49:22;20.00;;;10.93;;
43552;SDS011;29153;42.696;23.218;2022-09-01T00:52:02;20.35;;;11.43;;
43552;SDS011;29153;42.696;23.218;2022-09-01T00:54:33;17.52;;;10.55;;
43552;SDS011;29153;42.696;23.218;2022-09-01T00:56:58;18.12;;;11.05;;
43552;SDS011;29153;42.696;23.218;2022-09-01T00:59:26;18.92;;;10.88;;
43552;SDS011;29153;42.696;23.218;2022-09-01T01:01:54;17.90;;;11.57;;
43552;SDS011;29153;42.696;23.218;2022-09-01T01:04:23;20.35;;;11.45;;
43552;SDS011;29153;42.696;23.218;2022-09-01T01:06:54;15.85;;;10.48;;
43552;SDS011;29153;42.696;23.218;2022-09-01T01:09:26;16.67;;;10.60;;
43552;SDS011;29153;42.696;23.218;2022-09-01T01:11:57;22.13;;;10.60;;
43552;SDS011;29153;42.696;23.218;2022-09-01T01:14:26;18.45;;;10.38;;
43552;SDS011;29153;42.696;23.218;2022-09-01T01:16:58;21.60;;;10.72;;
43552;SDS011;29153;42.696;23.218;2022-09-01T01:22:33;19.23;;;10.13;;
43552;SDS011;29153;42.696;23.218;2022-09-01T01:25:18;16.60;;;9.75;;
43552;SDS011;29153;42.696;23.218;2022-09-01T01:27:47;16.07;;;10.25;;
43552;SDS011;29153;42.696;23.218;2022-09-01T01:30:16;17.77;;;10.53;;
43552;SDS011;29153;42.696;23.218;2022-09-01T01:32:45;21.00;;;11.35;;
43552;SDS011;29153;42.696;23.218;2022-09-01T01:35:15;17.50;;;9.88;;
43552;SDS011;29153;42.696;23.218;2022-09-01T01:37:45;17.10;;;11.28;;
43552;SDS011;29153;42.696;23.218;2022-09-01T01:40:14;16.40;;;10.05;;
43552;SDS011;29153;42.696;23.218;2022-09-01T01:42:43;19.73;;;11.30;;
43552;SDS011;29153;42.696;23.218;2022-09-01T01:45:13;15.70;;;10.48;;
43552;SDS011;29153;42.696;23.218;2022-09-01T01:47:47;17.12;;;11.10;;
43552;SDS011;29153;42.696;23.218;2022-09-01T01:50:23;22.65;;;11.38;;
43552;SDS011;29153;42.696;23.218;2022-09-01T01:52:48;17.25;;;10.38;;
43552;SDS011;29153;42.696;23.218;2022-09-01T01:55:16;18.02;;;11.18;;
43552;SDS011;29153;42.696;23.218;2022-09-01T01:57:46;17.90;;;11.70;;
43552;SDS011;29153;42.696;23.218;2022-09-01T02:00:21;19.40;;;11.15;;
43552;SDS011;29153;42.696;23.218;2022-09-01T02:02:46;20.17;;;10.75;;
43552;SDS011;29153;42.696;23.218;2022-09-01T02:05:17;17.55;;;10.63;;
43552;SDS011;29153;42.696;23.218;2022-09-01T02:07:54;18.77;;;11.03;;
43552;SDS011;29153;42.696;23.218;2022-09-01T02:10:27;16.55;;;9.90;;
43552;SDS011;29153;42.696;23.218;2022-09-01T02:12:56;17.10;;;11.22;;
43552;SDS011;29153;42.696;23.218;2022-09-01T02:15:27;17.25;;;10.75;;
43552;SDS011;29153;42.696;23.218;2022-09-01T02:17:54;18.23;;;10.75;;
43552;SDS011;29153;42.696;23.218;2022-09-01T02:20:23;17.90;;;9.58;;
43552;SDS011;29153;42.696;23.218;2022-09-01T02:22:53;15.65;;;10.23;;
43552;SDS011;29153;42.696;23.218;2022-09-01T02:27:48;16.77;;;10.25;;
43552;SDS011;29153;42.696;23.218;2022-09-01T02:30:18;17.27;;;10.25;;
43552;SDS011;29153;42.696;23.218;2022-09-01T02:32:47;18.20;;;9.70;;
43552;SDS011;29153;42.696;23.218;2022-09-01T02:35:15;19.23;;;10.80;;
43552;SDS011;29153;42.696;23.218;2022-09-01T02:37:43;23.05;;;10.95;;
43552;SDS011;29153;42.696;23.218;2022-09-01T02:40:12;19.85;;;12.15;;
43552;SDS011;29153;42.696;23.218;2022-09-01T02:42:40;16.50;;;11.12;;
43552;SDS011;29153;42.696;23.218;2022-09-01T02:45:08;17.32;;;10.98;;
43552;SDS011;29153;42.696;23.218;2022-09-01T02:47:37;19.27;;;11.08;;
43552;SDS011;29153;42.696;23.218;2022-09-01T02:50:06;20.23;;;11.97;;
43552;SDS011;29153;42.696;23.218;2022-09-01T02:52:36;19.27;;;11.75;;
43552;SDS011;29153;42.696;23.218;2022-09-01T02:55:05;17.20;;;11.22;;
43552;SDS011;29153;42.696;23.218;2022-09-01T02:57:34;17.55;;;11.22;;
43552;SDS011;29153;42.696;23.218;2022-09-01T03:00:03;18.70;;;10.68;;
43552;SDS011;29153;42.696;23.218;2022-09-01T03:02:34;17.92;;;9.58;;
43552;SDS011;29153;42.696;23.218;2022-09-01T03:05:02;16.25;;;9.95;;
43552;SDS011;29153;42.696;23.218;2022-09-01T03:07:30;18.17;;;11.03;;
43552;SDS011;29153;42.696;23.218;2022-09-01T03:09:58;19.17;;;10.60;;
43552;SDS011;29153;42.696;23.218;2022-09-01T03:12:27;18.07;;;10.28;;
43552;SDS011;29153;42.696;23.218;2022-09-01T03:14:54;17.07;;;11.63;;
43552;SDS011;29153;42.696;23.218;2022-09-01T03:17:22;17.65;;;10.48;;
43552;SDS011;29153;42.696;23.218;2022-09-01T03:19:50;21.00;;;10.75;;
43552;SDS011;29153;42.696;23.218;2022-09-01T03:22:19;18.42;;;11.43;;
43552;SDS011;29153;42.696;23.218;2022-09-01T03:27:14;17.65;;;9.88;;
43552;SDS011;29153;42.696;23.218;2022-09-01T03:29:41;16.65;;;11.15;;
43552;SDS011;29153;42.696;23.218;2022-09-01T03:32:09;18.32;;;10.00;;
43552;SDS011;29153;42.696;23.218;2022-09-01T03:34:37;15.80;;;10.65;;
43552;SDS011;29153;42.696;23.218;2022-09-01T03:37:04;17.62;;;10.15;;
43552;SDS011;29153;42.696;23.218;2022-09-01T03:39:34;23.57;;;10.48;;
43552;SDS011;29153;42.696;23.218;2022-09-01T03:42:02;18.87;;;9.55;;
43552;SDS011;29153;42.696;23.218;2022-09-01T03:44:31;18.02;;;10.00;;
43552;SDS011;29153;42.696;23.218;2022-09-01T03:47:00;17.27;;;9.83;;
43552;SDS011;29153;42.696;23.218;2022-09-01T03:49:28;18.07;;;10.90;;
43552;SDS011;29153;42.696;23.218;2022-09-01T03:51:55;19.55;;;11.53;;
43552;SDS011;29153;42.696;23.218;2022-09-01T03:54:23;17.48;;;9.70;;
43552;SDS011;29153;42.696;23.218;2022-09-01T03:56:52;17.73;;;9.68;;
43552;SDS011;29153;42.696;23.218;2022-09-01T03:59:20;19.00;;;10.20;;
43552;SDS011;29153;42.696;23.218;2022-09-01T04:01:49;17.73;;;9.85;;
43552;SDS011;29153;42.696;23.218;2022-09-01T04:04:16;15.90;;;10.25;;
43552;SDS011;29153;42.696;23.218;2022-09-01T04:06:44;16.23;;;9.80;;
43552;SDS011;29153;42.696;23.218;2022-09-01T04:09:13;18.95;;;10.95;;
43552;SDS011;29153;42.696;23.218;2022-09-01T04:11:41;18.67;;;11.05;;
43552;SDS011;29153;42.696;23.218;2022-09-01T04:14:10;18.48;;;10.08;;
43552;SDS011;29153;42.696;23.218;2022-09-01T04:16:38;17.85;;;10.60;;
43552;SDS011;29153;42.696;23.218;2022-09-01T04:19:21;19.87;;;10.78;;
43552;SDS011;29153;42.696;23.218;2022-09-01T04:21:55;17.30;;;11.18;;
43552;SDS011;29153;42.696;23.218;2022-09-01T04:24:27;16.93;;;10.25;;
43552;SDS011;29153;42.696;23.218;2022-09-01T04:26:57;19.45;;;11.48;;
43552;SDS011;29153;42.696;23.218;2022-09-01T04:29:26;16.93;;;10.25;;
43552;SDS011;29153;42.696;23.218;2022-09-01T04:31:56;16.62;;;9.75;;
43552;SDS011;29153;42.696;23.218;2022-09-01T04:34:27;19.65;;;11.35;;
43552;SDS011;29153;42.696;23.218;2022-09-01T04:36:58;17.45;;;9.43;;
43552;SDS011;29153;42.696;23.218;2022-09-01T04:39:25;17.75;;;10.98;;
43552;SDS011;29153;42.696;23.218;2022-09-01T04:41:54;18.10;;;11.48;;
43552;SDS011;29153;42.696;23.218;2022-09-01T04:44:21;17.42;;;11.28;;
43552;SDS011;29153;42.696;23.218;2022-09-01T04:46:50;23.20;;;11.60;;
43552;SDS011;29153;42.696;23.218;2022-09-01T04:49:19;22.52;;;11.53;;
43552;SDS011;29153;42.696;23.218;2022-09-01T04:51:50;23.07;;;12.10;;
43552;SDS011;29153;42.696;23.218;2022-09-01T04:54:19;19.12;;;10.70;;
43552;SDS011;29153;42.696;23.218;2022-09-01T04:56:48;21.75;;;11.10;;
43552;SDS011;29153;42.696;23.218;2022-09-01T04:59:18;19.35;;;12.30;;
43552;SDS011;29153;42.696;23.218;2022-09-01T05:01:48;18.15;;;10.65;;
43552;SDS011;29153;42.696;23.218;2022-09-01T05:04:19;18.80;;;10.95;;
43552;SDS011;29153;42.696;23.218;2022-09-01T05:06:50;17.35;;;10.82;;
43552;SDS011;29153;42.696;23.218;2022-09-01T05:09:23;17.50;;;10.90;;
43552;SDS011;29153;42.696;23.218;2022-09-01T05:11:51;22.82;;;12.65;;
43552;SDS011;29153;42.696;23.218;2022-09-01T05:14:19;23.60;;;13.75;;
43552;SDS011;29153;42.696;23.218;2022-09-01T05:16:48;26.17;;;15.13;;
43552;SDS011;29153;42.696;23.218;2022-09-01T05:19:23;24.20;;;13.95;;
43552;SDS011;29153;42.696;23.218;2022-09-01T05:21:53;24.00;;;13.65;;
43552;SDS011;29153;42.696;23.218;2022-09-01T05:24:29;22.67;;;13.08;;
43552;SDS011;29153;42.696;23.218;2022-09-01T05:27:05;23.38;;;13.72;;
43552;SDS011;29153;42.696;23.218;2022-09-01T05:29:34;21.95;;;11.93;;
43552;SDS011;29153;42.696;23.218;2022-09-01T05:32:05;22.60;;;12.45;;
43552;SDS011;29153;42.696;23.218;2022-09-01T05:34:34;21.25;;;12.35;;
43552;SDS011;29153;42.696;23.218;2022-09-01T05:37:13;21.48;;;13.22;;
43552;SDS011;29153;42.696;23.218;2022-09-01T05:39:42;25.08;;;13.90;;
43552;SDS011;29153;42.696;23.218;2022-09-01T05:42:10;23.50;;;13.40;;
43552;SDS011;29153;42.696;23.218;2022-09-01T05:44:38;29.02;;;15.05;;
43552;SDS011;29153;42.696;23.218;2022-09-01T05:47:07;27.02;;;14.05;;
43552;SDS011;29153;42.696;23.218;2022-09-01T05:49:37;26.52;;;15.15;;
43552;SDS011;29153;42.696;23.218;2022-09-01T05:52:07;26.90;;;15.05;;
43552;SDS011;29153;42.696;23.218;2022-09-01T05:54:36;27.65;;;13.08;;
43552;SDS011;29153;42.696;23.218;2022-09-01T05:57:05;28.92;;;11.90;;
43552;SDS011;29153;42.696;23.218;2022-09-01T05:59:39;16.90;;;9.78;;
43552;SDS011;29153;42.696;23.218;2022-09-01T06:02:10;23.15;;;12.03;;
43552;SDS011;29153;42.696;23.218;2022-09-01T06:04:37;26.87;;;13.05;;
43552;SDS011;29153;42.696;23.218;2022-09-01T06:07:05;23.18;;;12.63;;
43552;SDS011;29153;42.696;23.218;2022-09-01T06:09:38;20.32;;;12.60;;
43552;SDS011;29153;42.696;23.218;2022-09-01T06:12:07;22.13;;;12.50;;
43552;SDS011;29153;42.696;23.218;2022-09-01T06:14:37;27.90;;;12.58;;
43552;SDS011;29153;42.696;23.218;2022-09-01T06:17:07;21.95;;;13.22;;
43552;SDS011;29153;42.696;23.218;2022-09-01T06:19:44;22.75;;;13.68;;
43552;SDS011;29153;42.696;23.218;2022-09-01T06:22:13;23.25;;;14.33;;
43552;SDS011;29153;42.696;23.218;2022-09-01T06:24:44;23.73;;;12.45;;
43552;SDS011;29153;42.696;23.218;2022-09-01T06:27:33;21.02;;;12.68;;
43552;SDS011;29153;42.696;23.218;2022-09-01T06:30:02;22.32;;;12.60;;
43552;SDS011;29153;42.696;23.218;2022-09-01T06:32:32;25.37;;;13.90;;
43552;SDS011;29153;42.696;23.218;2022-09-01T06:35:02;21.70;;;14.45;;
43552;SDS011;29153;42.696;23.218;2022-09-01T06:37:31;22.95;;;13.48;;
43552;SDS011;29153;42.696;23.218;2022-09-01T06:39:59;25.35;;;13.83;;
43552;SDS011;29153;42.696;23.218;2022-09-01T06:42:28;27.35;;;14.05;;
43552;SDS011;29153;42.696;23.218;2022-09-01T06:44:57;27.10;;;15.15;;
43552;SDS011;29153;42.696;23.218;2022-09-01T06:47:25;25.90;;;15.75;;
43552;SDS011;29153;42.696;23.218;2022-09-01T06:49:53;27.77;;;13.88;;
43552;SDS011;29153;42.696;23.218;2022-09-01T06:52:25;25.92;;;16.62;;
43552;SDS011;29153;42.696;23.218;2022-09-01T06:54:52;27.15;;;15.35;;
43552;SDS011;29153;42.696;23.218;2022-09-01T06:57:20;28.15;;;16.40;;
43552;SDS011;29153;42.696;23.218;2022-09-01T07:04:44;29.60;;;17.27;;
43552;SDS011;29153;42.696;23.218;2022-09-01T07:07:14;27.32;;;16.05;;
43552;SDS011;29153;42.696;23.218;2022-09-01T07:09:42;30.08;;;17.73;;
43552;SDS011;29153;42.696;23.218;2022-09-01T07:12:09;30.92;;;17.17;;
43552;SDS011;29153;42.696;23.218;2022-09-01T07:14:38;31.42;;;18.25;;
43552;SDS011;29153;42.696;23.218;2022-09-01T07:17:06;32.63;;;18.17;;
43552;SDS011;29153;42.696;23.218;2022-09-01T07:19:35;40.08;;;19.15;;
43552;SDS011;29153;42.696;23.218;2022-09-01T07:22:04;32.13;;;18.12;;
43552;SDS011;29153;42.696;23.218;2022-09-01T07:24:31;32.75;;;17.57;;
43552;SDS011;29153;42.696;23.218;2022-09-01T07:27:00;33.00;;;18.25;;
43552;SDS011;29153;42.696;23.218;2022-09-01T07:29:27;32.55;;;19.42;;
43552;SDS011;29153;42.696;23.218;2022-09-01T07:31:55;32.80;;;18.52;;
43552;SDS011;29153;42.696;23.218;2022-09-01T07:34:23;31.05;;;18.00;;
43552;SDS011;29153;42.696;23.218;2022-09-01T07:36:52;28.35;;;17.15;;
43552;SDS011;29153;42.696;23.218;2022-09-01T07:39:21;31.80;;;17.37;;
43552;SDS011;29153;42.696;23.218;2022-09-01T07:41:48;29.80;;;18.32;;
43552;SDS011;29153;42.696;23.218;2022-09-01T07:44:16;31.30;;;17.17;;
43552;SDS011;29153;42.696;23.218;2022-09-01T07:46:44;31.02;;;17.87;;
43552;SDS011;29153;42.696;23.218;2022-09-01T07:49:13;26.05;;;16.37;;
43552;SDS011;29153;42.696;23.218;2022-09-01T07:51:40;29.48;;;16.27;;
43552;SDS011;29153;42.696;23.218;2022-09-01T07:54:11;26.75;;;16.00;;
43552;SDS011;29153;42.696;23.218;2022-09-01T07:59:06;24.15;;;14.98;;
43552;SDS011;29153;42.696;23.218;2022-09-01T08:04:00;23.42;;;14.98;;
43552;SDS011;29153;42.696;23.218;2022-09-01T08:06:28;24.18;;;14.90;;
43552;SDS011;29153;42.696;23.218;2022-09-01T08:08:57;24.67;;;16.45;;
43552;SDS011;29153;42.696;23.218;2022-09-01T08:11:27;25.00;;;15.45;;
43552;SDS011;29153;42.696;23.218;2022-09-01T08:13:56;23.45;;;15.35;;
43552;SDS011;29153;42.696;23.218;2022-09-01T08:16:30;28.83;;;18.15;;
43552;SDS011;29153;42.696;23.218;2022-09-01T08:18:54;24.45;;;15.05;;
43552;SDS011;29153;42.696;23.218;2022-09-01T08:21:23;25.27;;;14.50;;
43552;SDS011;29153;42.696;23.218;2022-09-01T08:23:52;29.87;;;15.18;;
43552;SDS011;29153;42.696;23.218;2022-09-01T08:26:22;24.80;;;15.85;;
43552;SDS011;29153;42.696;23.218;2022-09-01T08:28:52;27.65;;;16.87;;
43552;SDS011;29153;42.696;23.218;2022-09-01T08:31:21;22.15;;;16.35;;
43552;SDS011;29153;42.696;23.218;2022-09-01T08:33:51;23.30;;;14.45;;
43552;SDS011;29153;42.696;23.218;2022-09-01T08:36:20;24.87;;;15.68;;
43552;SDS011;29153;42.696;23.218;2022-09-01T08:38:49;24.45;;;14.53;;
43552;SDS011;29153;42.696;23.218;2022-09-01T08:41:19;20.95;;;13.43;;
43552;SDS011;29153;42.696;23.218;2022-09-01T08:44:04;21.97;;;14.45;;
43552;SDS011;29153;42.696;23.218;2022-09-01T08:46:35;21.37;;;14.40;;
43552;SDS011;29153;42.696;23.218;2022-09-01T08:49:24;23.83;;;14.23;;
43552;SDS011;29153;42.696;23.218;2022-09-01T08:51:45;17.90;;;11.97;;
43552;SDS011;29153;42.696;23.218;2022-09-01T08:57:29;17.92;;;11.48;;
43552;SDS011;29153;42.696;23.218;2022-09-01T08:59:54;15.68;;;11.28;;
43552;SDS011;29153;42.696;23.218;2022-09-01T09:02:32;17.42;;;11.57;;
43552;SDS011;29153;42.696;23.218;2022-09-01T09:13:21;14.95;;;9.30;;
43552;SDS011;29153;42.696;23.218;2022-09-01T09:15:51;14.90;;;8.75;;
43552;SDS011;29153;42.696;23.218;2022-09-01T09:18:36;11.75;;;8.15;;
43552;SDS011;29153;42.696;23.218;2022-09-01T09:21:06;15.80;;;9.83;;
43552;SDS011;29153;42.696;23.218;2022-09-01T09:23:41;15.55;;;9.35;;
43552;SDS011;29153;42.696;23.218;2022-09-01T09:26:10;16.65;;;10.95;;
43552;SDS011;29153;42.696;23.218;2022-09-01T09:28:37;15.53;;;9.45;;
43552;SDS011;29153;42.696;23.218;2022-09-01T09:31:27;14.70;;;9.33;;
43552;SDS011;29153;42.696;23.218;2022-09-01T09:33:57;15.50;;;10.18;;
43552;SDS011;29153;42.696;23.218;2022-09-01T09:39:03;15.48;;;10.72;;
43552;SDS011;29153;42.696;23.218;2022-09-01T09:41:40;15.08;;;10.30;;
43552;SDS011;29153;42.696;23.218;2022-09-01T09:44:22;13.25;;;9.70;;
43552;SDS011;29153;42.696;23.218;2022-09-01T09:46:51;15.53;;;10.13;;
43552;SDS011;29153;42.696;23.218;2022-09-01T09:49:28;13.62;;;9.90;;
43552;SDS011;29153;42.696;23.218;2022-09-01T09:52:13;15.03;;;10.03;;
43552;SDS011;29153;42.696;23.218;2022-09-01T09:54:37;14.45;;;9.50;;
43552;SDS011;29153;42.696;23.218;2022-09-01T09:57:25;12.25;;;8.80;;
43552;SDS011;29153;42.696;23.218;2022-09-01T09:59:57;13.80;;;9.33;;
43552;SDS011;29153;42.696;23.218;2022-09-01T10:02:40;12.90;;;8.95;;
43552;SDS011;29153;42.696;23.218;2022-09-01T10:05:24;12.25;;;8.60;;
43552;SDS011;29153;42.696;23.218;2022-09-01T10:07:59;14.93;;;9.58;;
43552;SDS011;29153;42.696;23.218;2022-09-01T10:10:28;14.00;;;9.70;;
43552;SDS011;29153;42.696;23.218;2022-09-01T10:12:58;13.62;;;8.30;;
43552;SDS011;29153;42.696;23.218;2022-09-01T10:15:30;14.25;;;10.45;;
43552;SDS011;29153;42.696;23.218;2022-09-01T10:18:01;16.35;;;9.18;;
43552;SDS011;29153;42.696;23.218;2022-09-01T10:20:32;12.73;;;8.40;;
43552;SDS011;29153;42.696;23.218;2022-09-01T10:23:02;13.98;;;8.98;;
43552;SDS011;29153;42.696;23.218;2022-09-01T10:25:31;12.73;;;8.68;;
43552;SDS011;29153;42.696;23.218;2022-09-01T10:28:20;14.75;;;9.85;;
43552;SDS011;29153;42.696;23.218;2022-09-01T10:30:37;13.40;;;9.65;;
43552;SDS011;29153;42.696;23.218;2022-09-01T10:33:07;15.45;;;10.08;;
43552;SDS011;29153;42.696;23.218;2022-09-01T10:35:38;15.53;;;9.50;;
43552;SDS011;29153;42.696;23.218;2022-09-01T10:38:07;21.25;;;9.60;;
43552;SDS011;29153;42.696;23.218;2022-09-01T10:40:38;15.75;;;9.78;;
43552;SDS011;29153;42.696;23.218;2022-09-01T10:43:31;15.03;;;8.80;;
43552;SDS011;29153;42.696;23.218;2022-09-01T10:46:07;14.73;;;9.45;;
43552;SDS011;29153;42.696;23.218;2022-09-01T10:48:45;15.58;;;10.08;;
43552;SDS011;29153;42.696;23.218;2022-09-01T10:53:47;14.05;;;9.08;;
43552;SDS011;29153;42.696;23.218;2022-09-01T10:56:49;14.25;;;9.78;;
43552;SDS011;29153;42.696;23.218;2022-09-01T11:05:08;20.08;;;9.15;;
43552;SDS011;29153;42.696;23.218;2022-09-01T11:06:58;15.10;;;9.60;;
43552;SDS011;29153;42.696;23.218;2022-09-01T11:09:42;15.55;;;10.03;;
43552;SDS011;29153;42.696;23.218;2022-09-01T11:12:23;13.20;;;9.28;;
43552;SDS011;29153;42.696;23.218;2022-09-01T11:14:59;17.30;;;9.60;;
43552;SDS011;29153;42.696;23.218;2022-09-01T11:17:35;13.35;;;9.48;;
43552;SDS011;29153;42.696;23.218;2022-09-01T11:20:27;16.75;;;9.83;;
43552;SDS011;29153;42.696;23.218;2022-09-01T11:25:58;15.60;;;9.50;;
43552;SDS011;29153;42.696;23.218;2022-09-01T11:33:49;15.00;;;8.90;;
43552;SDS011;29153;42.696;23.218;2022-09-01T11:39:29;16.57;;;9.75;;
43552;SDS011;29153;42.696;23.218;2022-09-01T11:47:38;15.85;;;8.50;;
43552;SDS011;29153;42.696;23.218;2022-09-01T11:50:20;14.95;;;8.65;;
43552;SDS011;29153;42.696;23.218;2022-09-01T11:53:09;15.65;;;9.40;;
43552;SDS011;29153;42.696;23.218;2022-09-01T11:55:42;15.23;;;9.25;;
43552;SDS011;29153;42.696;23.218;2022-09-01T11:58:27;15.08;;;9.63;;
43552;SDS011;29153;42.696;23.218;2022-09-01T12:00:57;14.98;;;9.73;;
43552;SDS011;29153;42.696;23.218;2022-09-01T12:03:39;12.43;;;9.85;;
43552;SDS011;29153;42.696;23.218;2022-09-01T12:06:08;15.78;;;11.03;;
43552;SDS011;29153;42.696;23.218;2022-09-01T12:08:38;17.57;;;9.45;;
43552;SDS011;29153;42.696;23.218;2022-09-01T12:11:12;15.10;;;10.48;;
43552;SDS011;29153;42.696;23.218;2022-09-01T12:13:54;14.45;;;10.05;;
43552;SDS011;29153;42.696;23.218;2022-09-01T12:16:27;16.12;;;10.40;;
43552;SDS011;29153;42.696;23.218;2022-09-01T12:18:56;16.52;;;10.28;;
43552;SDS011;29153;42.696;23.218;2022-09-01T12:21:29;15.05;;;10.35;;
43552;SDS011;29153;42.696;23.218;2022-09-01T12:24:09;14.90;;;10.50;;
43552;SDS011;29153;42.696;23.218;2022-09-01T12:26:45;15.48;;;9.50;;
43552;SDS011;29153;42.696;23.218;2022-09-01T12:29:16;15.32;;;10.03;;
43552;SDS011;29153;42.696;23.218;2022-09-01T12:31:45;13.15;;;10.08;;
43552;SDS011;29153;42.696;23.218;2022-09-01T12:34:24;13.22;;;9.35;;
43552;SDS011;29153;42.696;23.218;2022-09-01T12:37:06;14.40;;;9.60;;
43552;SDS011;29153;42.696;23.218;2022-09-01T12:39:42;15.85;;;8.38;;
43552;SDS011;29153;42.696;23.218;2022-09-01T12:42:21;15.35;;;8.78;;
43552;SDS011;29153;42.696;23.218;2022-09-01T12:52:47;16.15;;;9.88;;
43552;SDS011;29153;42.696;23.218;2022-09-01T12:55:20;14.33;;;9.58;;
43552;SDS011;29153;42.696;23.218;2022-09-01T12:57:56;17.52;;;10.45;;
43552;SDS011;29153;42.696;23.218;2022-09-01T13:00:29;14.93;;;9.13;;
43552;SDS011;29153;42.696;23.218;2022-09-01T13:05:33;15.90;;;9.18;;
43552;SDS011;29153;42.696;23.218;2022-09-01T13:08:05;15.90;;;10.50;;
43552;SDS011;29153;42.696;23.218;2022-09-01T13:10:39;16.93;;;10.60;;
43552;SDS011;29153;42.696;23.218;2022-09-01T13:13:08;12.53;;;10.23;;
43552;SDS011;29153;42.696;23.218;2022-09-01T13:15:40;15.55;;;9.48;;
43552;SDS011;29153;42.696;23.218;2022-09-01T13:18:08;13.25;;;8.55;;
43552;SDS011;29153;42.696;23.218;2022-09-01T13:20:35;14.58;;;10.53;;
43552;SDS011;29153;42.696;23.218;2022-09-01T13:23:03;16.27;;;10.72;;
43552;SDS011;29153;42.696;23.218;2022-09-01T13:25:31;14.85;;;10.20;;
43552;SDS011;29153;42.696;23.218;2022-09-01T13:30:33;15.93;;;10.08;;
43552;SDS011;29153;42.696;23.218;2022-09-01T13:32:56;15.10;;;10.00;;
43552;SDS011;29153;42.696;23.218;2022-09-01T13:35:24;14.55;;;10.35;;
43552;SDS011;29153;42.696;23.218;2022-09-01T13:37:51;13.48;;;9.98;;
43552;SDS011;29153;42.696;23.218;2022-09-01T13:40:20;20.32;;;10.93;;
43552;SDS011;29153;42.696;23.218;2022-09-01T13:42:48;16.60;;;10.78;;
43552;SDS011;29153;42.696;23.218;2022-09-01T13:45:19;16.48;;;10.25;;
43552;SDS011;29153;42.696;23.218;2022-09-01T13:47:50;22.48;;;10.35;;
43552;SDS011;29153;42.696;23.218;2022-09-01T13:50:19;17.25;;;10.78;;
43552;SDS011;29153;42.696;23.218;2022-09-01T13:52:50;15.05;;;10.43;;
43552;SDS011;29153;42.696;23.218;2022-09-01T13:55:20;14.15;;;10.38;;
43552;SDS011;29153;42.696;23.218;2022-09-01T13:57:55;18.87;;;11.63;;
43552;SDS011;29153;42.696;23.218;2022-09-01T14:00:29;14.25;;;10.70;;
43552;SDS011;29153;42.696;23.218;2022-09-01T14:02:55;17.55;;;9.90;;
43552;SDS011;29153;42.696;23.218;2022-09-01T14:05:25;17.37;;;10.58;;
43552;SDS011;29153;42.696;23.218;2022-09-01T14:07:54;16.65;;;9.63;;
43552;SDS011;29153;42.696;23.218;2022-09-01T14:10:23;13.28;;;10.15;;
43552;SDS011;29153;42.696;23.218;2022-09-01T14:12:52;17.32;;;10.43;;
43552;SDS011;29153;42.696;23.218;2022-09-01T14:17:48;15.38;;;10.20;;
43552;SDS011;29153;42.696;23.218;2022-09-01T14:20:19;14.20;;;10.53;;
43552;SDS011;29153;42.696;23.218;2022-09-01T14:22:48;19.98;;;11.12;;
43552;SDS011;29153;42.696;23.218;2022-09-01T14:25:17;16.07;;;9.43;;
43552;SDS011;29153;42.696;23.218;2022-09-01T14:27:45;14.28;;;10.18;;
43552;SDS011;29153;42.696;23.218;2022-09-01T14:30:19;13.93;;;9.53;;
43552;SDS011;29153;42.696;23.218;2022-09-01T14:32:47;16.30;;;9.95;;
43552;SDS011;29153;42.696;23.218;2022-09-01T14:35:18;13.45;;;9.35;;
43552;SDS011;29153;42.696;23.218;2022-09-01T14:37:48;12.95;;;9.00;;
43552;SDS011;29153;42.696;23.218;2022-09-01T14:40:18;16.00;;;9.80;;
43552;SDS011;29153;42.696;23.218;2022-09-01T14:42:49;18.65;;;8.80;;
43552;SDS011;29153;42.696;23.218;2022-09-01T14:45:18;13.62;;;8.88;;
43552;SDS011;29153;42.696;23.218;2022-09-01T14:47:48;16.80;;;10.78;;
43552;SDS011;29153;42.696;23.218;2022-09-01T14:50:18;14.75;;;11.25;;
43552;SDS011;29153;42.696;23.218;2022-09-01T14:52:47;13.20;;;8.85;;
43552;SDS011;29153;42.696;23.218;2022-09-01T14:55:17;16.23;;;10.75;;
43552;SDS011;29153;42.696;23.218;2022-09-01T14:57:46;13.08;;;9.90;;
43552;SDS011;29153;42.696;23.218;2022-09-01T15:00:14;17.00;;;10.72;;
43552;SDS011;29153;42.696;23.218;2022-09-01T15:02:43;13.10;;;9.80;;
43552;SDS011;29153;42.696;23.218;2022-09-01T15:05:11;14.58;;;8.85;;
43552;SDS011;29153;42.696;23.218;2022-09-01T15:07:40;17.82;;;11.35;;
43552;SDS011;29153;42.696;23.218;2022-09-01T15:10:09;15.03;;;9.88;;
43552;SDS011;29153;42.696;23.218;2022-09-01T15:12:40;13.43;;;10.03;;
43552;SDS011;29153;42.696;23.218;2022-09-01T15:15:08;16.75;;;10.90;;
43552;SDS011;29153;42.696;23.218;2022-09-01T15:17:36;15.90;;;10.05;;
43552;SDS011;29153;42.696;23.218;2022-09-01T15:20:04;15.20;;;10.85;;
43552;SDS011;29153;42.696;23.218;2022-09-01T15:22:50;17.30;;;11.70;;
43552;SDS011;29153;42.696;23.218;2022-09-01T15:27:44;16.82;;;9.88;;
43552;SDS011;29153;42.696;23.218;2022-09-01T15:30:12;17.23;;;9.73;;
43552;SDS011;29153;42.696;23.218;2022-09-01T15:32:42;16.93;;;10.50;;
43552;SDS011;29153;42.696;23.218;2022-09-01T15:35:12;19.15;;;11.20;;
43552;SDS011;29153;42.696;23.218;2022-09-01T15:37:40;17.05;;;9.80;;
43552;SDS011;29153;42.696;23.218;2022-09-01T15:42:35;17.10;;;10.20;;
43552;SDS011;29153;42.696;23.218;2022-09-01T15:45:04;13.08;;;10.08;;
43552;SDS011;29153;42.696;23.218;2022-09-01T15:47:34;14.07;;;9.20;;
43552;SDS011;29153;42.696;23.218;2022-09-01T15:50:04;12.93;;;8.90;;
43552;SDS011;29153;42.696;23.218;2022-09-01T15:52:33;15.00;;;8.58;;